Accueil
METAR-TAF:

METAR-TAF

Aéroports :

Aéroport régional Les Éplatures

La Chaux-de-Fonds, Suisse

latitude: 47-05-03N, longitude: 006-47-37E, altitude: 1027 m

Observation

Le bulletin a été fait il y a 6 minutes, à 01:20 UTC
Vent calme
Température 0°C
Humidité 80%
Pression 1006 hPa
Visibilité 10 km ou plus
pas de nuages en-dessous de 1500 mètres et pas de cumulonimbus.

METAR: LSGC 210120Z AUTO 00000KT CAVOK M00/M03 Q1006

Heure: 02:26 (01:26 UTC)

Prévision

Le bulletin a été fait il y a 11 heures et 1 minutes, à 14:25 UTC
Prévision valable du 20 à 15 UTC au 20 à 24 UTC
Vent 3 kt de direction variable
Visibilité 10 km ou plus
Nuages épars à une hauteur de 2500 ft
Nuages fragmentés à une hauteur de 7000 ft
Probabilité 30% :
Temporairement
du 20 à 15 UTC au 20 à 17 UTC
Visibilité: 4000 m
Ciel couvert à une hauteur de 1400 ft
neige faible

TAF: LSGC 201425Z 2015/2024 VRB03KT 9999 SCT025 BKN070 PROB30 TEMPO 2015/2017 4000 -SN OVC014

Observations et prévisions météorologiques de plus de 4000 aéroports (messages METAR et TAF).

Les stations disponibles sont représentées par des disques jaunes et rouges sur la carte.

Passer la souris dessus pour voir le nom de la station.

Cliquer dessus pour voir les observations et prévisions météorologiques.

Pour changer de carte: cliquez sur les boutons verts avec une croix noire pour zoomer, sur le bouton vert avec un tiret pour effectuer un zoom arrière, ou sur les flèches vertes pour les cartes adjacentes.


METAR-TAF: